sensor_id;sensor_type;location;lat;lon;timestamp;P1;durP1;ratioP1;P2;durP2;ratioP2
31382;SDS011;18014;49.228;11.102;2022-12-18T00:01:37;79.30;;;36.78;;
31382;SDS011;18014;49.228;11.102;2022-12-18T00:03:38;82.22;;;37.90;;
31382;SDS011;18014;49.228;11.102;2022-12-18T00:05:46;80.68;;;37.10;;
31382;SDS011;18014;49.228;11.102;2022-12-18T00:07:47;84.25;;;37.70;;
31382;SDS011;18014;49.228;11.102;2022-12-18T00:09:49;83.32;;;36.58;;
31382;SDS011;18014;49.228;11.102;2022-12-18T00:11:50;95.00;;;38.45;;
31382;SDS011;18014;49.228;11.102;2022-12-18T00:13:51;95.03;;;40.78;;
31382;SDS011;18014;49.228;11.102;2022-12-18T00:15:53;93.70;;;38.28;;
31382;SDS011;18014;49.228;11.102;2022-12-18T00:17:54;91.45;;;39.85;;
31382;SDS011;18014;49.228;11.102;2022-12-18T00:19:55;97.05;;;39.50;;
31382;SDS011;18014;49.228;11.102;2022-12-18T00:21:56;95.70;;;41.85;;
31382;SDS011;18014;49.228;11.102;2022-12-18T00:23:58;71.80;;;30.30;;
31382;SDS011;18014;49.228;11.102;2022-12-18T00:26:00;86.40;;;41.75;;
31382;SDS011;18014;49.228;11.102;2022-12-18T00:28:03;86.40;;;39.80;;
31382;SDS011;18014;49.228;11.102;2022-12-18T00:30:04;87.57;;;39.20;;
31382;SDS011;18014;49.228;11.102;2022-12-18T00:32:05;68.17;;;30.47;;
31382;SDS011;18014;49.228;11.102;2022-12-18T00:34:08;91.22;;;38.58;;
31382;SDS011;18014;49.228;11.102;2022-12-18T00:36:21;85.30;;;38.25;;
31382;SDS011;18014;49.228;11.102;2022-12-18T00:38:25;97.25;;;40.75;;
31382;SDS011;18014;49.228;11.102;2022-12-18T00:40:26;84.97;;;39.30;;
31382;SDS011;18014;49.228;11.102;2022-12-18T00:42:27;90.93;;;39.58;;
31382;SDS011;18014;49.228;11.102;2022-12-18T00:44:47;85.97;;;39.60;;
31382;SDS011;18014;49.228;11.102;2022-12-18T00:46:48;110.22;;;46.38;;
31382;SDS011;18014;49.228;11.102;2022-12-18T00:48:49;112.20;;;46.33;;
31382;SDS011;18014;49.228;11.102;2022-12-18T00:50:50;111.78;;;45.90;;
31382;SDS011;18014;49.228;11.102;2022-12-18T00:52:51;128.75;;;48.80;;
31382;SDS011;18014;49.228;11.102;2022-12-18T00:54:52;124.50;;;50.05;;
31382;SDS011;18014;49.228;11.102;2022-12-18T00:56:53;132.77;;;50.88;;
31382;SDS011;18014;49.228;11.102;2022-12-18T00:58:55;81.72;;;33.15;;
31382;SDS011;18014;49.228;11.102;2022-12-18T01:00:56;90.38;;;40.15;;
31382;SDS011;18014;49.228;11.102;2022-12-18T01:02:56;83.45;;;37.28;;
31382;SDS011;18014;49.228;11.102;2022-12-18T01:04:58;93.32;;;39.42;;
31382;SDS011;18014;49.228;11.102;2022-12-18T01:06:59;76.75;;;35.05;;
31382;SDS011;18014;49.228;11.102;2022-12-18T01:09:00;82.18;;;33.22;;
31382;SDS011;18014;49.228;11.102;2022-12-18T01:11:13;60.67;;;25.40;;
31382;SDS011;18014;49.228;11.102;2022-12-18T01:13:21;85.53;;;34.35;;
31382;SDS011;18014;49.228;11.102;2022-12-18T01:15:21;79.15;;;33.22;;
31382;SDS011;18014;49.228;11.102;2022-12-18T01:17:22;68.47;;;31.95;;
31382;SDS011;18014;49.228;11.102;2022-12-18T01:19:24;74.30;;;30.92;;
31382;SDS011;18014;49.228;11.102;2022-12-18T01:21:25;76.57;;;31.67;;
31382;SDS011;18014;49.228;11.102;2022-12-18T01:23:26;71.35;;;30.95;;
31382;SDS011;18014;49.228;11.102;2022-12-18T01:25:26;81.72;;;33.63;;
31382;SDS011;18014;49.228;11.102;2022-12-18T01:27:27;72.72;;;31.73;;
31382;SDS011;18014;49.228;11.102;2022-12-18T01:29:28;73.50;;;32.08;;
31382;SDS011;18014;49.228;11.102;2022-12-18T01:31:31;71.90;;;29.50;;
31382;SDS011;18014;49.228;11.102;2022-12-18T01:33:33;77.28;;;31.48;;
31382;SDS011;18014;49.228;11.102;2022-12-18T01:35:39;77.53;;;34.20;;
31382;SDS011;18014;49.228;11.102;2022-12-18T01:37:41;79.93;;;33.30;;
31382;SDS011;18014;49.228;11.102;2022-12-18T01:39:42;82.32;;;34.80;;
31382;SDS011;18014;49.228;11.102;2022-12-18T01:41:43;73.32;;;30.80;;
31382;SDS011;18014;49.228;11.102;2022-12-18T01:44:46;70.95;;;29.38;;
31382;SDS011;18014;49.228;11.102;2022-12-18T01:46:43;74.10;;;29.83;;
31382;SDS011;18014;49.228;11.102;2022-12-18T01:48:44;76.18;;;33.47;;
31382;SDS011;18014;49.228;11.102;2022-12-18T01:50:47;75.55;;;30.17;;
31382;SDS011;18014;49.228;11.102;2022-12-18T01:52:51;67.00;;;29.02;;
31382;SDS011;18014;49.228;11.102;2022-12-18T01:55:06;71.85;;;31.08;;
31382;SDS011;18014;49.228;11.102;2022-12-18T01:57:08;66.40;;;28.42;;
31382;SDS011;18014;49.228;11.102;2022-12-18T01:59:09;73.68;;;31.20;;
31382;SDS011;18014;49.228;11.102;2022-12-18T02:01:11;57.55;;;24.52;;
31382;SDS011;18014;49.228;11.102;2022-12-18T02:03:12;72.22;;;31.65;;
31382;SDS011;18014;49.228;11.102;2022-12-18T02:05:16;73.53;;;29.52;;
31382;SDS011;18014;49.228;11.102;2022-12-18T02:09:52;72.80;;;31.15;;
31382;SDS011;18014;49.228;11.102;2022-12-18T02:12:15;82.55;;;33.00;;
31382;SDS011;18014;49.228;11.102;2022-12-18T02:16:40;62.58;;;28.30;;
31382;SDS011;18014;49.228;11.102;2022-12-18T02:18:53;68.10;;;27.92;;
31382;SDS011;18014;49.228;11.102;2022-12-18T02:21:06;61.53;;;28.30;;
31382;SDS011;18014;49.228;11.102;2022-12-18T02:26:02;64.30;;;28.08;;
31382;SDS011;18014;49.228;11.102;2022-12-18T02:28:06;69.90;;;28.90;;
31382;SDS011;18014;49.228;11.102;2022-12-18T02:30:11;74.40;;;30.15;;
31382;SDS011;18014;49.228;11.102;2022-12-18T02:32:14;64.90;;;28.93;;
31382;SDS011;18014;49.228;11.102;2022-12-18T02:34:19;75.05;;;29.98;;
31382;SDS011;18014;49.228;11.102;2022-12-18T02:36:26;65.25;;;28.45;;
31382;SDS011;18014;49.228;11.102;2022-12-18T02:38:29;62.47;;;26.40;;
31382;SDS011;18014;49.228;11.102;2022-12-18T02:40:31;70.40;;;29.73;;
31382;SDS011;18014;49.228;11.102;2022-12-18T02:42:32;64.60;;;27.58;;
31382;SDS011;18014;49.228;11.102;2022-12-18T02:44:34;68.90;;;27.75;;
31382;SDS011;18014;49.228;11.102;2022-12-18T02:46:43;65.10;;;27.05;;
31382;SDS011;18014;49.228;11.102;2022-12-18T02:48:48;70.85;;;28.05;;
31382;SDS011;18014;49.228;11.102;2022-12-18T02:51:08;64.85;;;27.35;;
31382;SDS011;18014;49.228;11.102;2022-12-18T02:57:43;71.57;;;27.55;;
31382;SDS011;18014;49.228;11.102;2022-12-18T03:02:08;72.20;;;29.80;;
31382;SDS011;18014;49.228;11.102;2022-12-18T03:04:19;60.78;;;25.17;;
31382;SDS011;18014;49.228;11.102;2022-12-18T03:06:25;65.53;;;26.77;;
31382;SDS011;18014;49.228;11.102;2022-12-18T03:08:34;64.35;;;27.00;;
31382;SDS011;18014;49.228;11.102;2022-12-18T03:10:40;64.65;;;27.80;;
31382;SDS011;18014;49.228;11.102;2022-12-18T03:12:51;61.92;;;26.77;;
31382;SDS011;18014;49.228;11.102;2022-12-18T03:14:58;69.38;;;27.40;;
31382;SDS011;18014;49.228;11.102;2022-12-18T03:17:05;62.10;;;26.40;;
31382;SDS011;18014;49.228;11.102;2022-12-18T03:19:14;66.57;;;28.80;;
31382;SDS011;18014;49.228;11.102;2022-12-18T03:21:20;66.50;;;28.20;;
31382;SDS011;18014;49.228;11.102;2022-12-18T03:23:24;65.75;;;27.65;;
31382;SDS011;18014;49.228;11.102;2022-12-18T03:25:28;60.50;;;25.80;;
31382;SDS011;18014;49.228;11.102;2022-12-18T03:27:31;67.68;;;26.88;;
31382;SDS011;18014;49.228;11.102;2022-12-18T03:29:38;66.15;;;26.77;;
31382;SDS011;18014;49.228;11.102;2022-12-18T03:31:45;62.65;;;26.60;;
31382;SDS011;18014;49.228;11.102;2022-12-18T03:33:57;57.90;;;25.63;;
31382;SDS011;18014;49.228;11.102;2022-12-18T03:36:00;61.47;;;27.33;;
31382;SDS011;18014;49.228;11.102;2022-12-18T03:38:02;65.80;;;27.13;;
31382;SDS011;18014;49.228;11.102;2022-12-18T03:40:03;67.38;;;27.80;;
31382;SDS011;18014;49.228;11.102;2022-12-18T03:47:03;59.60;;;24.95;;
31382;SDS011;18014;49.228;11.102;2022-12-18T03:51:26;61.17;;;26.05;;
31382;SDS011;18014;49.228;11.102;2022-12-18T03:53:41;61.95;;;27.40;;
31382;SDS011;18014;49.228;11.102;2022-12-18T03:55:49;60.60;;;25.40;;
31382;SDS011;18014;49.228;11.102;2022-12-18T03:59:55;60.28;;;24.48;;
31382;SDS011;18014;49.228;11.102;2022-12-18T04:02:08;68.57;;;28.63;;
31382;SDS011;18014;49.228;11.102;2022-12-18T04:04:09;61.23;;;25.03;;
31382;SDS011;18014;49.228;11.102;2022-12-18T04:08:14;59.78;;;25.02;;
31382;SDS011;18014;49.228;11.102;2022-12-18T04:10:15;59.00;;;27.40;;
31382;SDS011;18014;49.228;11.102;2022-12-18T04:12:17;60.42;;;26.13;;
31382;SDS011;18014;49.228;11.102;2022-12-18T04:14:18;61.50;;;26.33;;
31382;SDS011;18014;49.228;11.102;2022-12-18T04:16:20;59.78;;;24.42;;
31382;SDS011;18014;49.228;11.102;2022-12-18T04:18:20;54.55;;;24.25;;
31382;SDS011;18014;49.228;11.102;2022-12-18T04:20:21;53.72;;;23.77;;
31382;SDS011;18014;49.228;11.102;2022-12-18T04:22:22;51.58;;;23.67;;
31382;SDS011;18014;49.228;11.102;2022-12-18T04:24:23;51.75;;;24.17;;
31382;SDS011;18014;49.228;11.102;2022-12-18T04:26:24;56.33;;;24.45;;
31382;SDS011;18014;49.228;11.102;2022-12-18T04:28:25;48.17;;;21.83;;
31382;SDS011;18014;49.228;11.102;2022-12-18T04:30:26;53.22;;;22.48;;
31382;SDS011;18014;49.228;11.102;2022-12-18T04:32:27;48.97;;;23.63;;
31382;SDS011;18014;49.228;11.102;2022-12-18T04:34:28;54.28;;;23.98;;
31382;SDS011;18014;49.228;11.102;2022-12-18T04:36:29;56.47;;;26.85;;
31382;SDS011;18014;49.228;11.102;2022-12-18T04:38:30;61.80;;;24.55;;
31382;SDS011;18014;49.228;11.102;2022-12-18T04:40:31;48.50;;;21.17;;
31382;SDS011;18014;49.228;11.102;2022-12-18T04:42:35;50.88;;;23.02;;
31382;SDS011;18014;49.228;11.102;2022-12-18T04:44:36;51.55;;;22.13;;
31382;SDS011;18014;49.228;11.102;2022-12-18T04:46:37;50.15;;;20.30;;
31382;SDS011;18014;49.228;11.102;2022-12-18T04:48:38;55.33;;;22.05;;
31382;SDS011;18014;49.228;11.102;2022-12-18T04:50:38;57.33;;;23.17;;
31382;SDS011;18014;49.228;11.102;2022-12-18T04:52:39;51.70;;;21.83;;
31382;SDS011;18014;49.228;11.102;2022-12-18T04:54:40;51.85;;;23.30;;
31382;SDS011;18014;49.228;11.102;2022-12-18T04:56:41;57.03;;;24.92;;
31382;SDS011;18014;49.228;11.102;2022-12-18T04:58:43;50.67;;;20.80;;
31382;SDS011;18014;49.228;11.102;2022-12-18T05:00:45;49.20;;;21.15;;
31382;SDS011;18014;49.228;11.102;2022-12-18T05:02:46;46.03;;;20.85;;
31382;SDS011;18014;49.228;11.102;2022-12-18T05:04:46;44.88;;;20.17;;
31382;SDS011;18014;49.228;11.102;2022-12-18T05:06:47;52.78;;;21.80;;
31382;SDS011;18014;49.228;11.102;2022-12-18T05:08:48;49.55;;;19.80;;
31382;SDS011;18014;49.228;11.102;2022-12-18T05:10:49;49.78;;;22.92;;
31382;SDS011;18014;49.228;11.102;2022-12-18T05:12:58;50.13;;;21.45;;
31382;SDS011;18014;49.228;11.102;2022-12-18T05:14:59;49.67;;;21.98;;
31382;SDS011;18014;49.228;11.102;2022-12-18T05:17:00;53.80;;;22.38;;
31382;SDS011;18014;49.228;11.102;2022-12-18T05:19:00;49.13;;;20.33;;
31382;SDS011;18014;49.228;11.102;2022-12-18T05:21:02;50.05;;;20.77;;
31382;SDS011;18014;49.228;11.102;2022-12-18T05:23:03;50.13;;;22.38;;
31382;SDS011;18014;49.228;11.102;2022-12-18T05:25:04;48.80;;;21.55;;
31382;SDS011;18014;49.228;11.102;2022-12-18T05:27:05;52.28;;;20.85;;
31382;SDS011;18014;49.228;11.102;2022-12-18T05:29:06;48.88;;;21.20;;
31382;SDS011;18014;49.228;11.102;2022-12-18T05:31:07;51.00;;;21.58;;
31382;SDS011;18014;49.228;11.102;2022-12-18T05:33:08;46.00;;;20.33;;
31382;SDS011;18014;49.228;11.102;2022-12-18T05:35:09;45.97;;;19.50;;
31382;SDS011;18014;49.228;11.102;2022-12-18T05:37:11;51.85;;;22.58;;
31382;SDS011;18014;49.228;11.102;2022-12-18T05:39:12;47.90;;;21.65;;
31382;SDS011;18014;49.228;11.102;2022-12-18T05:41:13;47.35;;;19.45;;
31382;SDS011;18014;49.228;11.102;2022-12-18T05:43:14;53.20;;;22.27;;
31382;SDS011;18014;49.228;11.102;2022-12-18T05:45:16;49.60;;;20.13;;
31382;SDS011;18014;49.228;11.102;2022-12-18T05:47:17;48.90;;;20.05;;
31382;SDS011;18014;49.228;11.102;2022-12-18T05:49:18;51.88;;;21.95;;
31382;SDS011;18014;49.228;11.102;2022-12-18T05:51:20;42.47;;;17.17;;
31382;SDS011;18014;49.228;11.102;2022-12-18T05:55:22;41.60;;;18.30;;
31382;SDS011;18014;49.228;11.102;2022-12-18T05:57:23;45.92;;;19.15;;
31382;SDS011;18014;49.228;11.102;2022-12-18T05:59:24;49.03;;;19.75;;
31382;SDS011;18014;49.228;11.102;2022-12-18T06:01:26;50.70;;;20.50;;
31382;SDS011;18014;49.228;11.102;2022-12-18T06:03:27;45.95;;;18.25;;
31382;SDS011;18014;49.228;11.102;2022-12-18T06:05:28;51.58;;;19.63;;
31382;SDS011;18014;49.228;11.102;2022-12-18T06:07:29;45.05;;;17.30;;
31382;SDS011;18014;49.228;11.102;2022-12-18T06:09:30;46.13;;;19.60;;
31382;SDS011;18014;49.228;11.102;2022-12-18T06:11:31;48.42;;;20.13;;
31382;SDS011;18014;49.228;11.102;2022-12-18T06:13:32;44.63;;;19.77;;
31382;SDS011;18014;49.228;11.102;2022-12-18T06:15:35;50.22;;;19.98;;
31382;SDS011;18014;49.228;11.102;2022-12-18T06:17:37;45.20;;;19.88;;
31382;SDS011;18014;49.228;11.102;2022-12-18T06:19:38;42.72;;;19.13;;
31382;SDS011;18014;49.228;11.102;2022-12-18T06:21:39;47.42;;;19.25;;
31382;SDS011;18014;49.228;11.102;2022-12-18T06:23:40;49.33;;;20.42;;
31382;SDS011;18014;49.228;11.102;2022-12-18T06:25:42;43.35;;;18.92;;
31382;SDS011;18014;49.228;11.102;2022-12-18T06:27:43;42.53;;;19.67;;
31382;SDS011;18014;49.228;11.102;2022-12-18T06:29:44;45.80;;;19.35;;
31382;SDS011;18014;49.228;11.102;2022-12-18T06:31:45;42.70;;;19.38;;
31382;SDS011;18014;49.228;11.102;2022-12-18T06:33:46;44.42;;;18.65;;
31382;SDS011;18014;49.228;11.102;2022-12-18T06:35:47;46.20;;;19.10;;
31382;SDS011;18014;49.228;11.102;2022-12-18T06:37:48;48.63;;;20.90;;
31382;SDS011;18014;49.228;11.102;2022-12-18T06:39:49;44.50;;;18.48;;
31382;SDS011;18014;49.228;11.102;2022-12-18T06:41:50;42.35;;;19.05;;
31382;SDS011;18014;49.228;11.102;2022-12-18T06:43:51;46.47;;;21.08;;
31382;SDS011;18014;49.228;11.102;2022-12-18T06:45:57;42.42;;;18.52;;
31382;SDS011;18014;49.228;11.102;2022-12-18T06:48:00;49.40;;;19.13;;
31382;SDS011;18014;49.228;11.102;2022-12-18T06:50:01;42.70;;;17.70;;
31382;SDS011;18014;49.228;11.102;2022-12-18T06:52:02;42.85;;;19.33;;
31382;SDS011;18014;49.228;11.102;2022-12-18T06:54:03;40.70;;;18.00;;
31382;SDS011;18014;49.228;11.102;2022-12-18T06:56:05;46.35;;;19.75;;
31382;SDS011;18014;49.228;11.102;2022-12-18T07:00:08;46.08;;;20.00;;
31382;SDS011;18014;49.228;11.102;2022-12-18T07:04:12;47.42;;;18.85;;
31382;SDS011;18014;49.228;11.102;2022-12-18T07:06:18;45.35;;;18.25;;
31382;SDS011;18014;49.228;11.102;2022-12-18T07:08:20;45.60;;;18.67;;
31382;SDS011;18014;49.228;11.102;2022-12-18T07:10:21;45.90;;;19.92;;
31382;SDS011;18014;49.228;11.102;2022-12-18T07:12:22;42.10;;;19.02;;
31382;SDS011;18014;49.228;11.102;2022-12-18T07:14:23;44.33;;;20.00;;
31382;SDS011;18014;49.228;11.102;2022-12-18T07:16:24;45.20;;;20.52;;
31382;SDS011;18014;49.228;11.102;2022-12-18T07:18:25;44.65;;;19.60;;
31382;SDS011;18014;49.228;11.102;2022-12-18T07:20:26;45.08;;;18.95;;
31382;SDS011;18014;49.228;11.102;2022-12-18T07:22:27;50.58;;;20.88;;
31382;SDS011;18014;49.228;11.102;2022-12-18T07:24:28;44.83;;;20.30;;
31382;SDS011;18014;49.228;11.102;2022-12-18T07:26:29;45.28;;;20.48;;
31382;SDS011;18014;49.228;11.102;2022-12-18T07:28:30;40.65;;;19.42;;
31382;SDS011;18014;49.228;11.102;2022-12-18T07:30:32;44.70;;;19.23;;
31382;SDS011;18014;49.228;11.102;2022-12-18T07:32:33;45.97;;;19.63;;
31382;SDS011;18014;49.228;11.102;2022-12-18T07:34:34;44.65;;;18.52;;
31382;SDS011;18014;49.228;11.102;2022-12-18T07:36:35;45.45;;;20.08;;
31382;SDS011;18014;49.228;11.102;2022-12-18T07:38:37;45.45;;;20.35;;
31382;SDS011;18014;49.228;11.102;2022-12-18T07:40:38;40.20;;;18.63;;
31382;SDS011;18014;49.228;11.102;2022-12-18T07:42:39;42.33;;;18.02;;
31382;SDS011;18014;49.228;11.102;2022-12-18T07:44:40;39.55;;;18.02;;
31382;SDS011;18014;49.228;11.102;2022-12-18T07:46:42;40.60;;;17.65;;
31382;SDS011;18014;49.228;11.102;2022-12-18T07:48:43;38.75;;;17.58;;
31382;SDS011;18014;49.228;11.102;2022-12-18T07:50:44;43.42;;;17.52;;
31382;SDS011;18014;49.228;11.102;2022-12-18T07:52:45;45.10;;;20.00;;
31382;SDS011;18014;49.228;11.102;2022-12-18T07:54:46;49.42;;;21.42;;
31382;SDS011;18014;49.228;11.102;2022-12-18T07:56:50;42.03;;;18.90;;
31382;SDS011;18014;49.228;11.102;2022-12-18T07:58:51;41.03;;;18.63;;
31382;SDS011;18014;49.228;11.102;2022-12-18T08:00:53;46.45;;;19.98;;
31382;SDS011;18014;49.228;11.102;2022-12-18T08:02:54;39.75;;;16.90;;
31382;SDS011;18014;49.228;11.102;2022-12-18T08:04:55;40.25;;;17.55;;
31382;SDS011;18014;49.228;11.102;2022-12-18T08:06:56;44.50;;;20.10;;
31382;SDS011;18014;49.228;11.102;2022-12-18T08:08:57;41.95;;;17.98;;
31382;SDS011;18014;49.228;11.102;2022-12-18T08:10:58;42.83;;;17.70;;
31382;SDS011;18014;49.228;11.102;2022-12-18T08:12:59;40.92;;;18.58;;
31382;SDS011;18014;49.228;11.102;2022-12-18T08:15:00;47.00;;;20.45;;
31382;SDS011;18014;49.228;11.102;2022-12-18T08:17:01;46.83;;;19.42;;
31382;SDS011;18014;49.228;11.102;2022-12-18T08:19:02;43.17;;;18.13;;
31382;SDS011;18014;49.228;11.102;2022-12-18T08:21:16;46.33;;;20.63;;
31382;SDS011;18014;49.228;11.102;2022-12-18T08:23:20;47.38;;;20.40;;
31382;SDS011;18014;49.228;11.102;2022-12-18T08:25:21;44.95;;;18.80;;
31382;SDS011;18014;49.228;11.102;2022-12-18T08:27:22;48.60;;;20.35;;
31382;SDS011;18014;49.228;11.102;2022-12-18T08:29:23;40.70;;;18.92;;
31382;SDS011;18014;49.228;11.102;2022-12-18T08:31:25;44.92;;;19.20;;
31382;SDS011;18014;49.228;11.102;2022-12-18T08:35:28;43.28;;;20.48;;
31382;SDS011;18014;49.228;11.102;2022-12-18T08:37:29;51.78;;;21.58;;
31382;SDS011;18014;49.228;11.102;2022-12-18T08:39:30;49.10;;;19.67;;
31382;SDS011;18014;49.228;11.102;2022-12-18T08:41:31;48.50;;;20.42;;
31382;SDS011;18014;49.228;11.102;2022-12-18T08:43:32;48.20;;;21.40;;
31382;SDS011;18014;49.228;11.102;2022-12-18T08:45:52;49.90;;;18.95;;
31382;SDS011;18014;49.228;11.102;2022-12-18T08:47:53;47.88;;;20.63;;
31382;SDS011;18014;49.228;11.102;2022-12-18T08:49:54;45.60;;;18.85;;
31382;SDS011;18014;49.228;11.102;2022-12-18T08:51:55;54.15;;;22.13;;
31382;SDS011;18014;49.228;11.102;2022-12-18T08:53:57;47.33;;;20.52;;
31382;SDS011;18014;49.228;11.102;2022-12-18T08:55:58;46.88;;;20.15;;
31382;SDS011;18014;49.228;11.102;2022-12-18T08:57:59;42.90;;;19.63;;
31382;SDS011;18014;49.228;11.102;2022-12-18T09:00:00;44.00;;;19.15;;
31382;SDS011;18014;49.228;11.102;2022-12-18T09:02:01;48.15;;;21.65;;
31382;SDS011;18014;49.228;11.102;2022-12-18T09:04:02;47.50;;;22.50;;
31382;SDS011;18014;49.228;11.102;2022-12-18T09:06:03;44.38;;;20.55;;
31382;SDS011;18014;49.228;11.102;2022-12-18T09:08:05;48.60;;;19.77;;
31382;SDS011;18014;49.228;11.102;2022-12-18T09:10:06;48.38;;;21.25;;
31382;SDS011;18014;49.228;11.102;2022-12-18T09:12:07;45.20;;;20.92;;
31382;SDS011;18014;49.228;11.102;2022-12-18T09:14:09;43.63;;;20.15;;
31382;SDS011;18014;49.228;11.102;2022-12-18T09:16:10;47.00;;;20.05;;
31382;SDS011;18014;49.228;11.102;2022-12-18T09:18:11;43.35;;;19.27;;
31382;SDS011;18014;49.228;11.102;2022-12-18T09:20:13;44.33;;;20.23;;
31382;SDS011;18014;49.228;11.102;2022-12-18T09:22:14;45.33;;;19.73;;
31382;SDS011;18014;49.228;11.102;2022-12-18T09:24:15;40.58;;;18.27;;
31382;SDS011;18014;49.228;11.102;2022-12-18T09:26:16;41.45;;;18.65;;
31382;SDS011;18014;49.228;11.102;2022-12-18T09:28:18;45.15;;;20.00;;
31382;SDS011;18014;49.228;11.102;2022-12-18T09:30:19;40.45;;;19.85;;
31382;SDS011;18014;49.228;11.102;2022-12-18T09:32:20;36.92;;;18.33;;
31382;SDS011;18014;49.228;11.102;2022-12-18T09:34:21;43.25;;;18.88;;
31382;SDS011;18014;49.228;11.102;2022-12-18T09:36:22;38.97;;;19.75;;
31382;SDS011;18014;49.228;11.102;2022-12-18T09:38:23;38.55;;;18.23;;
31382;SDS011;18014;49.228;11.102;2022-12-18T09:40:25;39.67;;;17.80;;
31382;SDS011;18014;49.228;11.102;2022-12-18T09:42:28;40.08;;;18.65;;
31382;SDS011;18014;49.228;11.102;2022-12-18T09:44:38;39.17;;;17.95;;
31382;SDS011;18014;49.228;11.102;2022-12-18T09:46:46;40.25;;;18.60;;
31382;SDS011;18014;49.228;11.102;2022-12-18T09:48:54;32.67;;;15.80;;
31382;SDS011;18014;49.228;11.102;2022-12-18T09:51:00;41.97;;;19.15;;
31382;SDS011;18014;49.228;11.102;2022-12-18T09:53:15;38.67;;;17.83;;
31382;SDS011;18014;49.228;11.102;2022-12-18T09:57:35;43.20;;;19.65;;
31382;SDS011;18014;49.228;11.102;2022-12-18T09:59:40;39.53;;;17.85;;
31382;SDS011;18014;49.228;11.102;2022-12-18T10:01:43;39.85;;;20.30;;
31382;SDS011;18014;49.228;11.102;2022-12-18T10:03:45;42.83;;;19.02;;
31382;SDS011;18014;49.228;11.102;2022-12-18T10:05:51;37.85;;;19.10;;
31382;SDS011;18014;49.228;11.102;2022-12-18T10:08:05;35.67;;;17.13;;
31382;SDS011;18014;49.228;11.102;2022-12-18T10:12:37;39.03;;;18.67;;
31382;SDS011;18014;49.228;11.102;2022-12-18T10:19:43;39.33;;;18.73;;
31382;SDS011;18014;49.228;11.102;2022-12-18T10:26:06;45.15;;;19.30;;
31382;SDS011;18014;49.228;11.102;2022-12-18T10:28:12;43.10;;;19.08;;
31382;SDS011;18014;49.228;11.102;2022-12-18T10:30:16;40.72;;;19.65;;
31382;SDS011;18014;49.228;11.102;2022-12-18T10:32:21;43.55;;;20.48;;
31382;SDS011;18014;49.228;11.102;2022-12-18T10:34:25;37.20;;;17.95;;
31382;SDS011;18014;49.228;11.102;2022-12-18T10:36:26;40.47;;;19.45;;
31382;SDS011;18014;49.228;11.102;2022-12-18T10:38:30;46.35;;;21.70;;
31382;SDS011;18014;49.228;11.102;2022-12-18T10:40:32;40.45;;;20.42;;
31382;SDS011;18014;49.228;11.102;2022-12-18T10:45:13;41.20;;;20.95;;
31382;SDS011;18014;49.228;11.102;2022-12-18T10:47:16;37.35;;;18.17;;
31382;SDS011;18014;49.228;11.102;2022-12-18T10:49:20;30.92;;;17.40;;
31382;SDS011;18014;49.228;11.102;2022-12-18T10:51:33;33.83;;;17.25;;
31382;SDS011;18014;49.228;11.102;2022-12-18T10:53:37;28.85;;;15.93;;
31382;SDS011;18014;49.228;11.102;2022-12-18T10:55:40;33.22;;;16.27;;
31382;SDS011;18014;49.228;11.102;2022-12-18T10:57:45;32.83;;;16.88;;
31382;SDS011;18014;49.228;11.102;2022-12-18T10:59:50;35.72;;;18.00;;
31382;SDS011;18014;49.228;11.102;2022-12-18T11:01:54;31.20;;;15.80;;
31382;SDS011;18014;49.228;11.102;2022-12-18T11:06:13;35.67;;;18.05;;
31382;SDS011;18014;49.228;11.102;2022-12-18T11:08:20;30.63;;;16.25;;
31382;SDS011;18014;49.228;11.102;2022-12-18T11:10:28;29.05;;;15.30;;
31382;SDS011;18014;49.228;11.102;2022-12-18T11:12:33;34.03;;;15.98;;
31382;SDS011;18014;49.228;11.102;2022-12-18T11:14:42;33.35;;;17.80;;
31382;SDS011;18014;49.228;11.102;2022-12-18T11:16:46;31.97;;;16.13;;
31382;SDS011;18014;49.228;11.102;2022-12-18T11:18:48;36.95;;;17.88;;
31382;SDS011;18014;49.228;11.102;2022-12-18T11:20:50;32.85;;;16.92;;
31382;SDS011;18014;49.228;11.102;2022-12-18T11:23:10;32.60;;;17.48;;
31382;SDS011;18014;49.228;11.102;2022-12-18T11:27:17;30.83;;;16.90;;
31382;SDS011;18014;49.228;11.102;2022-12-18T11:29:22;35.00;;;16.55;;
31382;SDS011;18014;49.228;11.102;2022-12-18T11:31:29;34.88;;;17.58;;
31382;SDS011;18014;49.228;11.102;2022-12-18T11:33:33;30.02;;;17.27;;
31382;SDS011;18014;49.228;11.102;2022-12-18T11:35:37;33.20;;;18.50;;
31382;SDS011;18014;49.228;11.102;2022-12-18T11:37:40;32.33;;;17.05;;
31382;SDS011;18014;49.228;11.102;2022-12-18T11:39:49;29.73;;;16.23;;
31382;SDS011;18014;49.228;11.102;2022-12-18T11:42:05;32.15;;;17.25;;
31382;SDS011;18014;49.228;11.102;2022-12-18T11:44:21;29.10;;;16.80;;
31382;SDS011;18014;49.228;11.102;2022-12-18T11:46:34;29.70;;;18.02;;
31382;SDS011;18014;49.228;11.102;2022-12-18T11:48:52;30.48;;;17.98;;
31382;SDS011;18014;49.228;11.102;2022-12-18T11:51:11;30.35;;;16.42;;
31382;SDS011;18014;49.228;11.102;2022-12-18T11:53:19;31.45;;;17.60;;
31382;SDS011;18014;49.228;11.102;2022-12-18T11:55:33;29.70;;;16.67;;
31382;SDS011;18014;49.228;11.102;2022-12-18T12:00:25;33.58;;;18.05;;
31382;SDS011;18014;49.228;11.102;2022-12-18T12:09:28;30.70;;;17.55;;
31382;SDS011;18014;49.228;11.102;2022-12-18T12:11:35;29.65;;;17.65;;
31382;SDS011;18014;49.228;11.102;2022-12-18T12:14:02;31.60;;;17.98;;
31382;SDS011;18014;49.228;11.102;2022-12-18T12:16:22;31.58;;;19.42;;
31382;SDS011;18014;49.228;11.102;2022-12-18T12:20:48;30.08;;;18.40;;
31382;SDS011;18014;49.228;11.102;2022-12-18T12:25:40;35.30;;;19.00;;
31382;SDS011;18014;49.228;11.102;2022-12-18T12:33:19;33.63;;;19.65;;
31382;SDS011;18014;49.228;11.102;2022-12-18T12:35:25;32.60;;;19.50;;
31382;SDS011;18014;49.228;11.102;2022-12-18T12:37:36;33.35;;;19.52;;
31382;SDS011;18014;49.228;11.102;2022-12-18T12:39:54;31.95;;;18.98;;
31382;SDS011;18014;49.228;11.102;2022-12-18T12:41:55;35.63;;;20.75;;
31382;SDS011;18014;49.228;11.102;2022-12-18T12:44:18;36.03;;;20.83;;
31382;SDS011;18014;49.228;11.102;2022-12-18T12:46:29;31.15;;;19.13;;
31382;SDS011;18014;49.228;11.102;2022-12-18T12:48:43;33.85;;;19.77;;
31382;SDS011;18014;49.228;11.102;2022-12-18T12:50:51;29.20;;;17.88;;
31382;SDS011;18014;49.228;11.102;2022-12-18T12:52:54;30.02;;;17.85;;
31382;SDS011;18014;49.228;11.102;2022-12-18T12:54:57;34.58;;;19.13;;
31382;SDS011;18014;49.228;11.102;2022-12-18T12:57:15;32.33;;;18.40;;
31382;SDS011;18014;49.228;11.102;2022-12-18T12:59:26;35.55;;;19.25;;
31382;SDS011;18014;49.228;11.102;2022-12-18T13:06:04;35.80;;;20.23;;
31382;SDS011;18014;49.228;11.102;2022-12-18T13:08:22;32.08;;;17.50;;
31382;SDS011;18014;49.228;11.102;2022-12-18T13:12:35;36.03;;;19.65;;
31382;SDS011;18014;49.228;11.102;2022-12-18T13:14:55;35.42;;;19.27;;
31382;SDS011;18014;49.228;11.102;2022-12-18T13:17:31;37.53;;;21.05;;